createdAt,value
2023-08-19T00:02:12.971Z,101131.28
2023-08-19T00:04:41.084Z,101134.84
2023-08-19T00:07:09.069Z,101130.16
2023-08-19T00:09:39.305Z,101126.91
2023-08-19T00:12:07.698Z,101125.00
2023-08-19T00:14:35.679Z,101126.09
2023-08-19T00:17:04.503Z,101126.09
2023-08-19T00:19:33.715Z,101119.81
2023-08-19T00:22:01.519Z,101124.47
2023-08-19T00:24:29.314Z,101121.72
2023-08-19T00:26:58.521Z,101119.81
2023-08-19T00:29:26.301Z,101120.91
2023-08-19T00:31:54.186Z,101120.09
2023-08-19T00:34:22.287Z,101124.75
2023-08-19T00:36:51.646Z,101125.88
2023-08-19T00:39:19.490Z,101122.31
2023-08-19T00:41:49.263Z,101129.72
2023-08-19T00:44:17.441Z,101124.25
2023-08-19T00:46:45.246Z,101129.72
2023-08-19T00:49:13.346Z,101130.03
2023-08-19T00:51:41.254Z,101126.47
2023-08-19T00:54:10.659Z,101131.94
2023-08-19T00:56:39.528Z,101126.47
2023-08-19T00:59:07.481Z,101120.47
2023-08-19T01:01:35.369Z,101122.41
2023-08-19T01:04:03.361Z,101114.47
2023-08-19T01:06:38.706Z,101118.28
2023-08-19T01:09:18.266Z,101103.78
2023-08-19T01:11:53.870Z,101107.63
2023-08-19T01:14:35.665Z,101104.44
2023-08-19T01:17:06.012Z,101114.22
2023-08-19T01:19:34.745Z,101107.13
2023-08-19T01:22:06.081Z,101107.94
2023-08-19T01:24:37.580Z,101108.22
2023-08-19T01:27:06.620Z,101110.16
2023-08-19T01:29:34.857Z,101103.84
2023-08-19T01:32:04.503Z,101092.06
2023-08-19T01:34:32.590Z,101088.53
2023-08-19T01:37:08.504Z,101080.59
2023-08-19T01:39:39.215Z,101072.69
2023-08-19T01:42:08.047Z,101071.88
2023-08-19T01:44:37.192Z,101071.06
2023-08-19T01:47:14.386Z,101076.53
2023-08-19T01:49:42.206Z,101076.81
2023-08-19T01:52:10.009Z,101076.00
2023-08-19T01:54:39.186Z,101066.97
2023-08-19T01:57:08.029Z,101063.44
2023-08-19T01:59:36.256Z,101070.81
2023-08-19T02:02:04.293Z,101070.00
2023-08-19T02:04:32.148Z,101064.53
2023-08-19T02:07:00.167Z,101071.66
2023-08-19T02:09:30.342Z,101076.31
2023-08-19T02:11:59.751Z,101062.63
2023-08-19T02:14:27.633Z,101057.13
2023-08-19T02:16:55.412Z,101059.88
2023-08-19T02:19:23.424Z,101057.13
2023-08-19T02:21:51.211Z,101051.66
2023-08-19T02:24:19.310Z,101054.38
2023-08-19T02:26:47.074Z,101050.84
2023-08-19T02:29:16.338Z,101044.53
2023-08-19T02:34:12.722Z,101028.09
2023-08-19T02:36:40.787Z,101033.88
2023-08-19T02:39:08.776Z,101039.38
2023-08-19T02:41:36.543Z,101042.09
2023-08-19T02:44:04.686Z,101039.38
2023-08-19T02:46:33.939Z,101051.13
2023-08-19T02:49:01.767Z,101044.84
2023-08-19T02:51:29.557Z,101040.47
2023-08-19T02:53:57.367Z,101040.47
2023-08-19T02:56:26.125Z,101038.84
2023-08-19T02:58:53.947Z,101039.66
2023-08-19T03:01:21.968Z,101036.41
2023-08-19T03:03:51.268Z,101032.03
2023-08-19T03:06:19.169Z,101033.97
2023-08-19T03:08:46.967Z,101031.22
2023-08-19T03:11:14.834Z,101030.41
2023-08-19T03:13:42.647Z,101040.84
2023-08-19T03:16:10.924Z,101036.19
2023-08-19T03:18:39.021Z,101032.63
2023-08-19T03:21:08.183Z,101027.16
2023-08-19T03:23:36.075Z,101026.66
2023-08-19T03:26:04.177Z,101025.84
2023-08-19T03:28:32.117Z,101022.28
2023-08-19T03:31:00.006Z,101019.56
2023-08-19T03:33:27.887Z,101025.03
2023-08-19T03:36:00.831Z,101023.41
2023-08-19T03:38:30.018Z,101028.88
2023-08-19T03:40:57.977Z,101030.00
2023-08-19T03:43:25.890Z,101034.66
2023-08-19T03:45:53.678Z,101036.59
2023-08-19T03:48:21.480Z,101029.47
2023-08-19T03:50:49.279Z,101025.94
2023-08-19T03:53:17.100Z,101034.16
2023-08-19T03:55:49.790Z,101036.88
2023-08-19T03:58:17.594Z,101047.31
2023-08-19T04:00:46.062Z,101047.31
2023-08-19T04:03:13.857Z,101042.66
2023-08-19T04:05:41.672Z,101046.22
2023-08-19T04:08:09.570Z,101039.91
2023-08-19T04:10:37.398Z,101031.69
2023-08-19T04:13:06.858Z,101041.84
2023-08-19T04:15:34.882Z,101042.66
2023-08-19T04:18:03.278Z,101049.75
2023-08-19T04:20:31.113Z,101046.22
2023-08-19T04:22:58.893Z,101043.78
2023-08-19T04:25:26.893Z,101049.25
2023-08-19T04:27:54.993Z,101043.78
2023-08-19T04:30:24.218Z,101046.50
2023-08-19T04:32:52.332Z,101049.25
2023-08-19T04:35:20.267Z,101057.47
2023-08-19T04:37:48.303Z,101055.03
2023-08-19T04:40:16.251Z,101044.88
2023-08-19T04:42:44.529Z,101049.53
2023-08-19T04:45:12.311Z,101051.47
2023-08-19T04:47:41.502Z,101054.22
2023-08-19T04:50:10.464Z,101058.06
2023-08-19T04:52:38.593Z,101052.28
2023-08-19T04:55:07.555Z,101042.44
2023-08-19T04:57:35.409Z,101045.19
2023-08-19T05:00:03.725Z,101048.22
2023-08-19T05:02:31.568Z,101049.03
2023-08-19T05:05:00.942Z,101041.91
2023-08-19T05:07:28.733Z,101035.63
2023-08-19T05:09:56.881Z,101053.97
2023-08-19T05:12:25.278Z,101051.25
2023-08-19T05:14:54.229Z,101051.53
2023-08-19T05:17:22.167Z,101056.19
2023-08-19T05:19:50.241Z,101060.88
2023-08-19T05:22:19.481Z,101075.38
2023-08-19T05:24:47.281Z,101069.91
2023-08-19T05:27:15.063Z,101065.00
2023-08-19T05:29:42.893Z,101060.34
2023-08-19T05:32:10.855Z,101063.09
2023-08-19T05:34:38.655Z,101065.00
2023-08-19T05:37:06.963Z,101065.00
2023-08-19T05:39:36.221Z,101066.13
2023-08-19T05:42:04.421Z,101062.28
2023-08-19T05:44:32.536Z,101069.66
2023-08-19T05:47:00.520Z,101073.53
2023-08-19T05:49:28.804Z,101065.31
2023-08-19T05:51:56.668Z,101076.25
2023-08-19T05:54:24.821Z,101078.19
2023-08-19T05:56:54.025Z,101077.06
2023-08-19T05:59:21.870Z,101075.44
2023-08-19T06:01:49.664Z,101072.69
2023-08-19T06:04:17.846Z,101074.09
2023-08-19T06:06:45.844Z,101082.03
2023-08-19T06:09:13.634Z,101082.53
2023-08-19T06:11:49.317Z,101080.09
2023-08-19T06:14:18.591Z,101097.34
2023-08-19T06:16:47.321Z,101094.59
2023-08-19T06:19:17.656Z,101082.38
2023-08-19T06:21:45.527Z,101097.34
2023-08-19T06:24:13.516Z,101105.28
2023-08-19T06:26:41.348Z,101101.72
2023-08-19T06:29:09.168Z,101111.56
2023-08-19T06:31:39.118Z,101103.34
2023-08-19T06:34:07.782Z,101111.56
2023-08-19T06:36:38.356Z,101114.31
2023-08-19T06:39:09.440Z,101125.25
2023-08-19T06:41:41.400Z,101126.06
2023-08-19T06:44:09.967Z,101124.16
2023-08-19T06:46:39.618Z,101120.59
2023-08-19T06:49:08.290Z,101126.59
2023-08-19T06:51:36.787Z,101131.25
2023-08-19T06:54:05.234Z,101140.28
2023-08-19T06:56:35.973Z,101134.00
2023-08-19T06:59:11.899Z,101136.44
2023-08-19T07:01:47.949Z,101149.31
2023-08-19T07:04:16.021Z,101147.38
2023-08-19T07:06:44.735Z,101151.75
2023-08-19T07:09:14.226Z,101154.22
2023-08-19T07:11:42.581Z,101148.72
2023-08-19T07:14:11.869Z,101152.28
2023-08-19T07:16:41.690Z,101148.72
2023-08-19T07:19:13.464Z,101149.53
2023-08-19T07:21:43.588Z,101139.41
2023-08-19T07:24:13.178Z,101146.50
2023-08-19T07:26:41.826Z,101159.91
2023-08-19T07:29:10.571Z,101154.44
2023-08-19T07:31:38.989Z,101143.84
2023-08-19T07:34:08.271Z,101164.81
2023-08-19T07:36:36.378Z,101175.75
2023-08-19T07:39:05.171Z,101178.50
2023-08-19T07:41:33.275Z,101176.28
2023-08-19T07:44:01.069Z,101172.44
2023-08-19T07:46:30.008Z,101182.28
2023-08-19T07:48:57.928Z,101194.06
2023-08-19T07:51:27.335Z,101199.25
2023-08-19T07:53:55.131Z,101198.13
2023-08-19T07:56:22.932Z,101199.72
2023-08-19T07:58:51.146Z,101185.53
2023-08-19T08:01:19.025Z,101186.56
2023-08-19T08:03:47.437Z,101176.72
2023-08-19T08:06:15.522Z,101175.59
2023-08-19T08:08:44.777Z,101192.84
2023-08-19T08:11:12.584Z,101191.75
2023-08-19T08:13:40.430Z,101195.28
2023-08-19T08:16:09.223Z,101196.09
2023-08-19T08:18:37.161Z,101204.84
2023-08-19T08:21:04.962Z,101204.84
2023-08-19T08:23:32.789Z,101207.59
2023-08-19T08:26:02.137Z,101219.88
2023-08-19T08:28:29.979Z,101224.25
2023-08-19T08:30:57.759Z,101227.81
2023-08-19T08:33:27.116Z,101221.53
2023-08-19T08:35:54.934Z,101229.97
2023-08-19T08:38:22.816Z,101243.66
2023-08-19T08:40:50.688Z,101248.03
2023-08-19T08:43:19.881Z,101248.03
2023-08-19T08:45:48.151Z,101245.81
2023-08-19T08:48:18.317Z,101239.53
2023-08-19T08:50:47.369Z,101250.19
2023-08-19T08:53:15.698Z,101262.78
2023-08-19T08:55:43.651Z,101263.59
2023-08-19T08:58:11.557Z,101267.97
2023-08-19T09:00:41.728Z,101280.56
2023-08-19T09:03:11.830Z,101274.28
2023-08-19T09:05:42.770Z,101273.97
2023-08-19T09:08:15.941Z,101278.34
2023-08-19T09:10:47.889Z,101274.50
2023-08-19T09:13:22.216Z,101280.84
2023-08-19T09:15:51.624Z,101296.16
2023-08-19T09:18:20.363Z,101288.47
2023-08-19T09:20:49.077Z,101298.63
2023-08-19T09:23:17.215Z,101296.69
2023-08-19T09:25:45.358Z,101312.84
2023-08-19T09:28:18.206Z,101307.34
2023-08-19T09:30:46.070Z,101298.03
2023-08-19T09:33:21.725Z,101313.38
2023-08-19T09:35:59.560Z,101319.66
2023-08-19T09:38:28.331Z,101324.84
2023-08-19T09:41:00.715Z,101335.53
2023-08-19T09:43:28.960Z,101339.09
2023-08-19T09:46:00.279Z,101329.75
2023-08-19T09:48:29.707Z,101337.38
2023-08-19T09:50:57.798Z,101340.13
2023-08-19T09:53:30.395Z,101340.94
2023-08-19T09:55:58.547Z,101349.41
2023-08-19T09:58:27.342Z,101357.63
2023-08-19T10:00:55.178Z,101350.75
2023-08-19T10:03:23.777Z,101361.41
2023-08-19T10:05:54.384Z,101377.28
2023-08-19T10:08:24.864Z,101373.44
2023-08-19T10:10:52.929Z,101370.41
2023-08-19T10:13:24.087Z,101361.94
2023-08-19T10:15:52.507Z,101376.09
2023-08-19T10:18:25.269Z,101378.56
2023-08-19T10:20:57.995Z,101374.72
2023-08-19T10:23:27.838Z,101390.34
2023-08-19T10:25:56.428Z,101394.13
2023-08-19T10:28:26.105Z,101393.31
2023-08-19T10:31:07.839Z,101395.47
2023-08-19T10:33:40.595Z,101394.06
2023-08-19T10:36:11.089Z,101386.38
2023-08-19T10:41:20.384Z,101396.47
2023-08-19T10:44:02.156Z,101398.91
2023-08-19T10:46:33.652Z,101408.47
2023-08-19T10:49:01.977Z,101418.03
2023-08-19T10:51:48.988Z,101429.84
2023-08-19T10:54:17.432Z,101435.56
2023-08-19T10:56:46.701Z,101424.56
2023-08-19T10:59:14.743Z,101433.63
2023-08-19T11:01:43.279Z,101439.94
2023-08-19T11:04:11.463Z,101444.31
2023-08-19T11:06:40.821Z,101451.41
2023-08-19T11:09:10.060Z,101452.25
2023-08-19T11:11:38.905Z,101458.53
2023-08-19T11:14:07.471Z,101456.63
2023-08-19T11:16:35.707Z,101475.53
2023-08-19T11:19:03.756Z,101507.34
2023-08-19T11:21:32.617Z,101519.44
2023-08-19T11:24:00.434Z,101530.94
2023-08-19T11:26:29.704Z,101532.84
2023-08-19T11:28:57.545Z,101542.72
2023-08-19T11:31:25.672Z,101566.59
2023-08-19T11:33:54.369Z,101569.56
2023-08-19T11:36:26.452Z,101580.84
2023-08-19T11:38:56.765Z,101580.84
2023-08-19T11:41:28.727Z,101576.16
2023-08-19T11:43:58.417Z,101562.78
2023-08-19T11:46:29.662Z,101579.72
2023-08-19T11:48:58.244Z,101595.38
2023-08-19T11:51:27.480Z,101593.75
2023-08-19T11:54:02.751Z,101590.19
2023-08-19T11:56:30.885Z,101597.31
2023-08-19T11:59:00.135Z,101580.38
2023-08-19T12:01:28.041Z,101598.41
2023-08-19T12:03:56.795Z,101596.78
2023-08-19T12:06:24.885Z,101590.47
2023-08-19T12:08:52.649Z,101599.00
2023-08-19T12:11:26.923Z,101583.63
2023-08-19T12:13:55.010Z,101608.84
2023-08-19T12:16:24.316Z,101626.44
2023-08-19T12:18:52.244Z,101634.66
2023-08-19T12:21:20.060Z,101625.31
2023-08-19T12:23:47.887Z,101620.94
2023-08-19T12:26:15.718Z,101621.22
2023-08-19T12:28:44.950Z,101636.59
2023-08-19T12:31:12.989Z,101630.28
2023-08-19T12:33:42.212Z,101641.25
2023-08-19T12:36:19.255Z,101642.06
2023-08-19T12:38:47.749Z,101634.66
2023-08-19T12:41:16.004Z,101627.53
2023-08-19T12:43:43.865Z,101630.28
2023-08-19T12:46:12.262Z,101631.09
2023-08-19T12:48:40.424Z,101632.72
2023-08-19T12:51:09.655Z,101642.59
2023-08-19T12:53:37.639Z,101644.53
2023-08-19T12:56:05.804Z,101649.19
2023-08-19T12:58:34.213Z,101656.59
2023-08-19T13:01:02.103Z,101659.63
2023-08-19T13:03:29.992Z,101663.50
2023-08-19T13:05:58.223Z,101664.31
2023-08-19T13:08:27.399Z,101678.84
2023-08-19T13:10:55.229Z,101681.06
2023-08-19T13:13:23.303Z,101676.41
2023-08-19T13:15:51.177Z,101675.28
2023-08-19T13:18:20.204Z,101678.03
2023-08-19T13:20:48.097Z,101681.59
2023-08-19T13:23:16.240Z,101693.38
2023-08-19T13:25:45.428Z,101701.91
2023-08-19T13:28:13.244Z,101704.66
2023-08-19T13:30:41.092Z,101700.25
2023-08-19T13:33:09.090Z,101681.06
2023-08-19T13:35:37.083Z,101713.16
2023-08-19T13:38:06.230Z,101721.69
2023-08-19T13:40:34.366Z,101678.59
2023-08-19T13:43:04.224Z,101666.00
2023-08-19T13:45:32.120Z,101677.78
2023-08-19T13:48:13.929Z,101659.16
2023-08-19T13:50:43.699Z,101687.41
2023-08-19T13:53:11.477Z,101746.13
2023-08-19T13:55:40.230Z,101748.88
2023-08-19T13:58:09.603Z,101703.34
2023-08-19T14:00:37.731Z,101681.38
2023-08-19T14:03:06.815Z,101697.84
2023-08-19T14:05:35.981Z,101669.59
2023-08-19T14:08:04.192Z,101661.38
2023-08-19T14:10:32.132Z,101698.13
2023-08-19T14:13:00.994Z,101690.19
2023-08-19T14:15:30.216Z,101685.81
2023-08-19T14:17:58.219Z,101686.91
2023-08-19T14:20:26.277Z,101692.69
2023-08-19T14:22:54.082Z,101684.47
2023-08-19T14:25:21.930Z,101680.09
2023-08-19T14:27:49.786Z,101677.63
2023-08-19T14:30:17.624Z,101683.94
2023-08-19T14:32:46.915Z,101686.66
2023-08-19T14:35:14.857Z,101693.78
2023-08-19T14:37:43.168Z,101693.78
2023-08-19T14:40:11.851Z,101694.34
2023-08-19T14:42:39.995Z,101709.16
2023-08-19T14:45:09.023Z,101713.53
2023-08-19T14:47:37.211Z,101716.00
2023-08-19T14:50:08.225Z,101716.81
2023-08-19T14:52:36.433Z,101709.69
2023-08-19T14:55:05.221Z,101714.06
2023-08-19T14:57:34.294Z,101717.63
2023-08-19T15:00:02.620Z,101719.56
2023-08-19T15:02:45.788Z,101725.84
2023-08-19T15:05:15.316Z,101720.09
2023-08-19T15:07:43.174Z,101714.88
2023-08-19T15:10:12.418Z,101720.63
2023-08-19T15:12:40.349Z,101722.25
2023-08-19T15:15:11.260Z,101721.44
2023-08-19T15:17:39.224Z,101718.41
2023-08-19T15:20:08.872Z,101720.03
2023-08-19T15:22:38.141Z,101718.13
2023-08-19T15:25:07.040Z,101708.78
2023-08-19T15:27:35.077Z,101708.50
2023-08-19T15:30:03.120Z,101707.38
2023-08-19T15:32:30.985Z,101712.06
2023-08-19T15:34:58.896Z,101712.06
2023-08-19T15:37:26.709Z,101713.69
2023-08-19T15:39:55.862Z,101704.34
2023-08-19T15:42:23.655Z,101708.75
2023-08-19T15:44:51.533Z,101706.00
2023-08-19T15:47:19.362Z,101698.88
2023-08-19T15:49:47.238Z,101702.16
2023-08-19T15:52:15.047Z,101702.16
2023-08-19T15:54:43.371Z,101711.19
2023-08-19T15:57:12.554Z,101714.75
2023-08-19T15:59:40.391Z,101719.16
2023-08-19T16:02:08.510Z,101699.19
2023-08-19T16:04:36.771Z,101717.22
2023-08-19T16:07:05.889Z,101719.97
2023-08-19T16:09:33.929Z,101728.19
2023-08-19T16:12:04.211Z,101725.75
2023-08-19T16:14:33.421Z,101725.75
2023-08-19T16:17:02.547Z,101726.84
2023-08-19T16:19:30.380Z,101727.16
2023-08-19T16:21:58.285Z,101727.13
2023-08-19T16:24:26.113Z,101737.53
2023-08-19T16:26:54.094Z,101733.97
2023-08-19T16:29:21.943Z,101732.03
2023-08-19T16:31:51.306Z,101731.22
2023-08-19T16:34:19.142Z,101734.50
2023-08-19T16:36:48.356Z,101730.94
2023-08-19T16:39:16.176Z,101738.06
2023-08-19T16:41:44.204Z,101729.84
2023-08-19T16:44:12.203Z,101735.31
2023-08-19T16:46:40.105Z,101719.75
2023-08-19T16:49:09.272Z,101737.78
2023-08-19T16:51:37.243Z,101738.59
2023-08-19T16:54:05.674Z,101741.34
2023-08-19T16:56:33.472Z,101741.34
2023-08-19T16:59:01.287Z,101728.78
2023-08-19T17:01:29.119Z,101744.91
2023-08-19T17:03:56.927Z,101747.38
2023-08-19T17:06:26.120Z,101746.28
2023-08-19T17:08:53.976Z,101749.03
2023-08-19T17:11:22.253Z,101746.28
2023-08-19T17:13:50.049Z,101743.25
2023-08-19T17:16:17.857Z,101746.00
2023-08-19T17:18:46.083Z,101747.91
2023-08-19T17:21:13.885Z,101750.66
2023-08-19T17:23:43.549Z,101765.22
2023-08-19T17:26:11.357Z,101762.47
2023-08-19T17:28:39.339Z,101756.97
2023-08-19T17:31:08.609Z,101759.72
2023-08-19T17:33:36.632Z,101757.78
2023-08-19T17:36:06.167Z,101754.81
2023-08-19T17:38:34.247Z,101766.31
2023-08-19T17:41:04.964Z,101772.91
2023-08-19T17:43:33.178Z,101777.81
2023-08-19T17:46:02.739Z,101775.06
2023-08-19T17:48:31.466Z,101778.66
2023-08-19T17:51:00.667Z,101787.97
2023-08-19T17:53:29.777Z,101784.41
2023-08-19T17:55:58.237Z,101791.28
2023-08-19T17:58:30.922Z,101794.88
2023-08-19T18:00:59.411Z,101792.38
2023-08-19T18:03:27.780Z,101790.72
2023-08-19T18:05:56.731Z,101800.88
2023-08-19T18:08:24.617Z,101792.66
2023-08-19T18:10:53.076Z,101805.56
2023-08-19T18:13:20.932Z,101815.72
2023-08-19T18:15:50.308Z,101820.09
2023-08-19T18:18:18.321Z,101802.03
2023-08-19T18:20:46.298Z,101816.00
2023-08-19T18:23:14.102Z,101811.34
2023-08-19T18:25:42.161Z,101806.44
2023-08-19T18:28:09.986Z,101804.53
2023-08-19T18:30:38.584Z,101809.97
2023-08-19T18:33:07.916Z,101808.34
2023-08-19T18:35:35.766Z,101814.66
2023-08-19T18:38:03.690Z,101825.63
2023-08-19T18:40:31.507Z,101824.81
2023-08-19T18:42:59.322Z,101833.03
2023-08-19T18:45:27.206Z,101834.13
2023-08-19T18:48:09.613Z,101836.06
2023-08-19T18:50:38.810Z,101846.22
2023-08-19T18:53:07.455Z,101845.69
2023-08-19T18:55:38.136Z,101846.50
2023-08-19T18:58:06.347Z,101858.56
2023-08-19T19:00:34.980Z,101856.94
2023-08-19T19:03:03.896Z,101850.09
2023-08-19T19:05:33.837Z,101847.34
2023-08-19T19:08:02.030Z,101844.59
2023-08-19T19:10:30.339Z,101854.75
2023-08-19T19:12:58.593Z,101853.94
2023-08-19T19:15:26.610Z,101856.97
2023-08-19T19:17:56.916Z,101862.44
2023-08-19T19:20:26.818Z,101869.03
2023-08-19T19:22:56.958Z,101866.88
2023-08-19T19:25:24.771Z,101875.63
2023-08-19T19:27:52.972Z,101879.47
2023-08-19T19:30:22.561Z,101894.00
2023-08-19T19:32:51.326Z,101887.16
2023-08-19T19:35:20.507Z,101886.34
2023-08-19T19:37:48.706Z,101879.00
2023-08-19T19:40:18.906Z,101888.84
2023-08-19T19:42:47.087Z,101891.28
2023-08-19T19:45:15.388Z,101892.94
2023-08-19T19:50:13.039Z,101889.94
2023-08-19T19:52:41.246Z,101889.13
2023-08-19T19:55:09.897Z,101898.44
2023-08-19T19:57:39.292Z,101897.63
2023-08-19T20:00:11.024Z,101906.13
2023-08-19T20:02:39.618Z,101905.31
2023-08-19T20:05:07.932Z,101904.78
2023-08-19T20:07:36.236Z,101914.94
2023-08-19T20:10:24.119Z,101909.72
2023-08-19T20:12:54.181Z,101916.59
2023-08-19T20:15:22.044Z,101915.75
2023-08-19T20:17:52.112Z,101906.47
2023-08-19T20:20:20.336Z,101920.16
2023-08-19T20:22:51.220Z,101919.34
2023-08-19T20:25:19.071Z,101923.19
2023-08-19T20:27:48.073Z,101926.22
2023-08-19T20:30:17.352Z,101924.56
2023-08-19T20:32:45.196Z,101922.94
2023-08-19T20:35:13.158Z,101929.50
2023-08-19T20:37:41.038Z,101929.78
2023-08-19T20:40:10.167Z,101932.28
2023-08-19T20:42:40.789Z,101935.00
2023-08-19T20:45:10.509Z,101936.94
2023-08-19T20:47:40.047Z,101935.84
2023-08-19T20:50:08.241Z,101943.25
2023-08-19T20:52:36.244Z,101943.53
2023-08-19T20:55:04.404Z,101948.19
2023-08-19T20:57:32.699Z,101949.28
2023-08-19T21:00:00.934Z,101955.88
2023-08-19T21:02:28.853Z,101949.84
2023-08-19T21:04:58.108Z,101953.69
2023-08-19T21:07:25.898Z,101958.34
2023-08-19T21:09:53.791Z,101966.84
2023-08-19T21:12:21.812Z,101967.94
2023-08-19T21:14:49.662Z,101966.31
2023-08-19T21:17:17.533Z,101974.81
2023-08-19T21:19:46.277Z,101980.56
2023-08-19T21:22:15.641Z,101975.06
2023-08-19T21:24:43.536Z,101984.66
2023-08-19T21:27:12.882Z,101990.13
2023-08-19T21:29:40.715Z,101971.50
2023-08-19T21:32:08.578Z,101983.28
2023-08-19T21:34:36.550Z,101982.44
2023-08-19T21:37:04.387Z,101988.22
2023-08-19T21:39:33.990Z,101986.56
2023-08-19T21:42:01.810Z,101988.75
2023-08-19T21:44:30.618Z,101990.94
2023-08-19T21:46:58.448Z,101987.41
2023-08-19T21:49:26.420Z,101985.75
2023-08-19T21:51:54.371Z,101986.03
2023-08-19T21:54:22.474Z,101985.19
2023-08-19T21:56:51.703Z,101989.31
2023-08-19T21:59:19.753Z,101985.75
2023-08-19T22:01:47.549Z,101981.63
2023-08-19T22:04:15.322Z,101979.19
2023-08-19T22:06:43.544Z,101980.28
2023-08-19T22:09:11.374Z,101979.72
2023-08-19T22:11:40.375Z,101982.78
2023-08-19T22:14:09.650Z,101988.53
2023-08-19T22:16:37.562Z,101986.06
2023-08-19T22:19:05.825Z,101984.41
2023-08-19T22:21:33.787Z,101990.44
2023-08-19T22:24:01.796Z,101983.31
2023-08-19T22:26:29.774Z,101991.00
2023-08-19T22:28:57.958Z,101989.34
2023-08-19T22:31:27.150Z,101984.41
2023-08-19T22:33:55.395Z,101979.22
2023-08-19T22:36:23.246Z,101989.34
2023-08-19T22:38:52.621Z,101987.69
2023-08-19T22:41:20.600Z,101993.72
2023-08-19T22:43:48.414Z,101990.97
2023-08-19T22:46:16.282Z,101998.66
2023-08-19T22:48:45.833Z,101998.09
2023-08-19T22:51:13.647Z,101995.63
2023-08-19T22:53:41.477Z,101998.63
2023-08-19T22:56:09.345Z,101999.75
2023-08-19T22:58:37.185Z,102005.47
2023-08-19T23:01:05.582Z,102003.03
2023-08-19T23:03:33.725Z,102006.03
2023-08-19T23:06:03.277Z,101996.16
2023-08-19T23:08:31.203Z,102002.75
2023-08-19T23:10:59.120Z,102004.66
2023-08-19T23:13:26.936Z,102004.94
2023-08-19T23:15:54.799Z,102002.47
2023-08-19T23:18:22.791Z,102005.47
2023-08-19T23:20:50.607Z,102000.25
2023-08-19T23:23:19.794Z,102004.91
2023-08-19T23:25:48.001Z,102010.66
2023-08-19T23:28:15.883Z,102016.41
2023-08-19T23:30:43.714Z,102008.47
2023-08-19T23:33:11.570Z,102007.91
2023-08-19T23:35:39.371Z,102009.81
2023-08-19T23:38:07.178Z,102009.00
2023-08-19T23:40:36.338Z,102002.94
2023-08-19T23:43:04.235Z,101985.69
2023-08-19T23:45:32.082Z,101979.38
2023-08-19T23:48:00.565Z,101995.28
2023-08-19T23:50:29.237Z,101992.81
2023-08-19T23:52:59.414Z,101976.34
2023-08-19T23:55:28.144Z,101996.91
2023-08-19T23:57:58.059Z,101998.81
